Time;durP1;ratioP1;P1;durP2;ratioP2;P2;SDS_P1;SDS_P2;PMS_P1;PMS_P2;Temp;Humidity;BMP_temperature;BMP_pressure;BME280_temperature;BME280_humidity;BME280_pressure;Samples;Min_cycle;Max_cycle;Signal;HPM_P1;HPM_P2
2024/03/14 00:00:31;;;;;;;;;;;;;;;;;;5119052;28;19911;-45
2024/03/14 00:02:57;;;;;;;;;;;;;;;;;;5118975;28;19955;-45
2024/03/14 00:05:24;;;;;;;;;;;;;;;;;;5118724;28;20298;-45
2024/03/14 00:07:50;;;;;;;;;;;;;;;;;;5118815;28;19919;-45
2024/03/14 00:10:17;;;;;;;;;;;;;;;;;;5118666;28;19908;-45
2024/03/14 00:12:44;;;;;;;;;;;;;;;;;;5118474;28;19908;-45
2024/03/14 00:15:11;;;;;;;;;;;;;;;;;;5100162;28;19919;-45
2024/03/14 00:17:38;;;;;;;;;;;;;;;;;;5117713;28;20385;-45
2024/03/14 00:20:05;;;;;;;;;;;;;;;;;;5118482;28;19911;-45
2024/03/14 00:22:31;;;;;;;;;;;;;;;;;;5118658;28;19950;-45
2024/03/14 00:24:57;;;;;;;;;;;;;;;;;;5118780;28;19908;-45
2024/03/14 00:27:23;;;;;;;;;;;;;;;;;;5118569;28;19912;-45
2024/03/14 00:29:49;;;;;;;;;;;;;;;;;;5118203;28;19907;-46
2024/03/14 00:32:15;;;;;;;;;;;;;;;;;;5118567;28;19946;-45
2024/03/14 00:34:41;;;;;;;;;;;;;;;;;;5118523;28;20355;-45
2024/03/14 00:37:07;;;;;;;;;;;;;;;;;;5118288;28;19908;-45
2024/03/14 00:39:33;;;;;;;;;;;;;;;;;;5118750;28;20275;-45
2024/03/14 00:41:59;;;;;;;;;;;;;;;;;;5118232;28;19937;-45
2024/03/14 00:44:25;;;;;;;;;;;;;;;;;;5118560;28;19908;-45
2024/03/14 00:46:51;;;;;;;;;;;;;;;;;;5118326;28;19908;-45
2024/03/14 00:49:17;;;;;;;;;;;;;;;;;;5118128;28;19915;-45
2024/03/14 00:51:44;;;;;;;;;;;;;;;;;;5118355;28;19908;-45
2024/03/14 00:54:10;;;;;;;;;;;;;;;;;;5118342;28;19912;-45
2024/03/14 00:56:36;;;;;;;;;;;;;;;;;;5118450;28;19914;-45
2024/03/14 00:59:02;;;;;;;;;;;;;;;;;;5118058;28;19916;-45
2024/03/14 01:01:28;;;;;;;;;;;;;;;;;;5118584;28;19908;-45
2024/03/14 01:03:54;;;;;;;;;;;;;;;;;;5117886;28;19961;-45
2024/03/14 01:06:21;;;;;;;;;;;;;;;;;;5117930;28;20340;-45
2024/03/14 01:08:48;;;;;;;;;;;;;;;;;;5117984;28;20021;-45
2024/03/14 01:11:20;;;;;;;;;;;;;;;;;;5118264;28;19915;-45
2024/03/14 01:13:46;;;;;;;;;;;;;;;;;;5118133;28;20979;-45
2024/03/14 01:16:13;;;;;;;;;;;;;;;;;;5099188;28;20379;-45
2024/03/14 01:18:40;;;;;;;;;;;;;;;;;;5117784;28;20006;-45
2024/03/14 01:21:09;;;;;;;;;;;;;;;;;;5117758;28;19908;-44
2024/03/14 01:23:37;;;;;;;;;;;;;;;;;;5117861;28;20364;-45
2024/03/14 01:26:03;;;;;;;;;;;;;;;;;;5117747;28;19931;-45
2024/03/14 01:28:29;;;;;;;;;;;;;;;;;;5118799;28;19908;-45
2024/03/14 01:30:58;;;;;;;;;;;;;;;;;;5122117;28;19908;-45
2024/03/14 01:33:24;;;;;;;;;;;;;;;;;;5121535;28;20282;-45
2024/03/14 01:35:54;;;;;;;;;;;;;;;;;;5121763;28;20011;-45
2024/03/14 01:38:20;;;;;;;;;;;;;;;;;;5121716;28;19912;-45
2024/03/14 01:40:46;;;;;;;;;;;;;;;;;;5121757;28;19912;-45
2024/03/14 01:43:12;;;;;;;;;;;;;;;;;;5121411;28;19907;-45
2024/03/14 01:45:38;;;;;;;;;;;;;;;;;;5121164;28;19957;-46
2024/03/14 01:48:05;;;;;;;;;;;;;;;;;;5121574;28;20018;-45
2024/03/14 01:50:31;;;;;;;;;;;;;;;;;;5121229;28;19954;-45
2024/03/14 01:52:59;;;;;;;;;;;;;;;;;;5121303;28;19908;-45
2024/03/14 01:55:25;;;;;;;;;;;;;;;;;;5121163;28;19908;-45
2024/03/14 01:57:51;;;;;;;;;;;;;;;;;;5121495;28;20320;-45
2024/03/14 02:00:18;;;;;;;;;;;;;;;;;;5121396;28;19915;-45
2024/03/14 02:02:44;;;;;;;;;;;;;;;;;;5120881;28;20275;-45
2024/03/14 02:05:10;;;;;;;;;;;;;;;;;;5120814;28;19923;-45
2024/03/14 02:07:37;;;;;;;;;;;;;;;;;;5121647;28;19907;-45
2024/03/14 02:10:03;;;;;;;;;;;;;;;;;;5120857;28;20381;-45
2024/03/14 02:12:29;;;;;;;;;;;;;;;;;;5121084;28;20002;-45
2024/03/14 02:14:56;;;;;;;;;;;;;;;;;;5120905;28;20279;-45
2024/03/14 02:17:21;;;;;;;;;;;;;;;;;;5120724;28;20421;-45
2024/03/14 02:19:47;;;;;;;;;;;;;;;;;;5120944;28;19912;-44
2024/03/14 02:22:13;;;;;;;;;;;;;;;;;;5120853;28;19954;-45
2024/03/14 02:24:39;;;;;;;;;;;;;;;;;;5120810;28;19908;-45
2024/03/14 02:27:06;;;;;;;;;;;;;;;;;;5120533;28;19912;-45
2024/03/14 02:29:32;;;;;;;;;;;;;;;;;;5120337;28;20390;-45
2024/03/14 02:31:58;;;;;;;;;;;;;;;;;;5120457;28;19908;-45
2024/03/14 02:34:25;;;;;;;;;;;;;;;;;;5120657;28;19908;-45
2024/03/14 02:36:51;;;;;;;;;;;;;;;;;;5120446;28;19915;-45
2024/03/14 02:39:22;;;;;;;;;;;;;;;;;;5120259;28;19946;-45
2024/03/14 02:41:48;;;;;;;;;;;;;;;;;;5119708;28;19936;-44
2024/03/14 02:44:16;;;;;;;;;;;;;;;;;;5120617;28;20391;-45
2024/03/14 02:46:42;;;;;;;;;;;;;;;;;;5120381;28;19912;-45
2024/03/14 02:49:09;;;;;;;;;;;;;;;;;;5120627;28;19915;-45
2024/03/14 02:51:34;;;;;;;;;;;;;;;;;;5119827;28;19915;-45
2024/03/14 02:54:01;;;;;;;;;;;;;;;;;;5120261;28;19912;-45
2024/03/14 02:56:28;;;;;;;;;;;;;;;;;;5119802;28;19912;-44
2024/03/14 02:58:54;;;;;;;;;;;;;;;;;;5119741;28;20290;-45
2024/03/14 03:01:22;;;;;;;;;;;;;;;;;;5119857;28;19958;-45
2024/03/14 03:03:48;;;;;;;;;;;;;;;;;;5119947;28;19912;-45
2024/03/14 03:06:14;;;;;;;;;;;;;;;;;;5119803;28;19927;-45
2024/03/14 03:08:42;;;;;;;;;;;;;;;;;;5119981;28;20259;-45
2024/03/14 03:11:08;;;;;;;;;;;;;;;;;;5119720;28;19972;-45
2024/03/14 03:13:34;;;;;;;;;;;;;;;;;;5119700;28;19915;-45
2024/03/14 03:16:04;;;;;;;;;;;;;;;;;;5119908;28;19912;-45
2024/03/14 03:18:30;;;;;;;;;;;;;;;;;;5119787;28;19939;-45
2024/03/14 03:20:56;;;;;;;;;;;;;;;;;;5119948;28;19919;-45
2024/03/14 03:23:22;;;;;;;;;;;;;;;;;;5119747;28;19912;-45
2024/03/14 03:25:49;;;;;;;;;;;;;;;;;;5119722;28;19939;-45
2024/03/14 03:28:15;;;;;;;;;;;;;;;;;;5119338;28;20283;-45
2024/03/14 03:30:41;;;;;;;;;;;;;;;;;;5119573;28;19919;-45
2024/03/14 03:33:16;;;;;;;;;;;;;;;;;;5119749;28;19983;-45
2024/03/14 03:35:42;;;;;;;;;;;;;;;;;;5118939;28;20358;-45
2024/03/14 03:38:09;;;;;;;;;;;;;;;;;;5119416;28;19908;-45
2024/03/14 03:40:39;;;;;;;;;;;;;;;;;;5119284;28;19961;-45
2024/03/14 03:43:05;;;;;;;;;;;;;;;;;;5119215;28;19953;-45
2024/03/14 03:45:31;;;;;;;;;;;;;;;;;;5119540;28;20350;-45
2024/03/14 03:47:57;;;;;;;;;;;;;;;;;;5119032;28;19908;-45
2024/03/14 03:50:23;;;;;;;;;;;;;;;;;;5119215;28;19911;-45
2024/03/14 03:52:49;;;;;;;;;;;;;;;;;;5119139;28;19908;-45
2024/03/14 03:55:18;;;;;;;;;;;;;;;;;;5118869;28;19914;-45
2024/03/14 03:57:44;;;;;;;;;;;;;;;;;;5119351;28;19915;-45
2024/03/14 04:02:55;;;;;;;;;;;;;;;;;;5118713;28;19964;-45
2024/03/14 04:05:21;;;;;;;;;;;;;;;;;;5118651;28;19923;-45
2024/03/14 04:07:50;;;;;;;;;;;;;;;;;;5118907;28;19914;-45
2024/03/14 04:10:16;;;;;;;;;;;;;;;;;;5119179;28;19915;-45
2024/03/14 04:12:42;;;;;;;;;;;;;;;;;;5118612;28;19908;-45
2024/03/14 04:15:09;;;;;;;;;;;;;;;;;;5118787;28;19952;-45
2024/03/14 04:17:35;;;;;;;;;;;;;;;;;;5118745;28;19915;-45
2024/03/14 04:20:01;;;;;;;;;;;;;;;;;;5118926;28;19911;-45
2024/03/14 04:22:27;;;;;;;;;;;;;;;;;;5118553;28;19915;-45
2024/03/14 04:24:53;;;;;;;;;;;;;;;;;;5118377;28;19956;-45
2024/03/14 04:27:21;;;;;;;;;;;;;;;;;;5118517;28;19908;-45
2024/03/14 04:29:47;;;;;;;;;;;;;;;;;;5118550;28;19908;-45
2024/03/14 04:32:13;;;;;;;;;;;;;;;;;;5118190;28;19914;-44
2024/03/14 04:34:39;;;;;;;;;;;;;;;;;;5118595;28;19939;-45
2024/03/14 04:37:06;;;;;;;;;;;;;;;;;;5118616;28;20278;-45
2024/03/14 04:39:33;;;;;;;;;;;;;;;;;;5118028;28;19958;-45
2024/03/14 04:41:59;;;;;;;;;;;;;;;;;;5118227;28;19961;-45
2024/03/14 04:44:25;;;;;;;;;;;;;;;;;;5118445;28;19912;-45
2024/03/14 04:46:54;;;;;;;;;;;;;;;;;;5118233;28;20291;-45
2024/03/14 04:49:21;;;;;;;;;;;;;;;;;;5118024;28;20344;-45
2024/03/14 04:51:47;;;;;;;;;;;;;;;;;;5118442;28;19943;-45
2024/03/14 04:54:16;;;;;;;;;;;;;;;;;;5118432;28;19915;-45
2024/03/14 04:56:42;;;;;;;;;;;;;;;;;;5118178;28;19907;-45
2024/03/14 04:59:12;;;;;;;;;;;;;;;;;;5118195;28;19919;-45
2024/03/14 05:01:38;;;;;;;;;;;;;;;;;;5118269;28;19908;-45
2024/03/14 05:04:04;;;;;;;;;;;;;;;;;;5120126;28;19989;-45
2024/03/14 05:06:31;;;;;;;;;;;;;;;;;;5121838;28;19924;-45
2024/03/14 05:08:58;;;;;;;;;;;;;;;;;;5121933;28;19970;-45
2024/03/14 05:11:24;;;;;;;;;;;;;;;;;;5122488;28;20363;-45
2024/03/14 05:13:56;;;;;;;;;;;;;;;;;;5122350;28;19911;-45
2024/03/14 05:16:22;;;;;;;;;;;;;;;;;;5121992;28;19911;-46
2024/03/14 05:18:48;;;;;;;;;;;;;;;;;;5122242;28;20397;-45
2024/03/14 05:21:15;;;;;;;;;;;;;;;;;;5122135;28;19915;-45
2024/03/14 05:23:41;;;;;;;;;;;;;;;;;;5121735;28;19908;-45
2024/03/14 05:26:07;;;;;;;;;;;;;;;;;;5121737;28;20031;-45
2024/03/14 05:28:33;;;;;;;;;;;;;;;;;;5121784;28;19915;-45
2024/03/14 05:30:59;;;;;;;;;;;;;;;;;;5121647;28;19961;-45
2024/03/14 05:33:25;;;;;;;;;;;;;;;;;;5121841;28;19908;-44
2024/03/14 05:35:51;;;;;;;;;;;;;;;;;;5121587;28;20475;-45
2024/03/14 05:38:17;;;;;;;;;;;;;;;;;;5122364;28;19908;-45
2024/03/14 05:40:43;;;;;;;;;;;;;;;;;;5121249;28;19912;-45
2024/03/14 05:43:09;;;;;;;;;;;;;;;;;;5121482;28;19998;-44
2024/03/14 05:45:35;;;;;;;;;;;;;;;;;;5121908;28;20251;-45
2024/03/14 05:48:01;;;;;;;;;;;;;;;;;;5121188;28;20449;-45
2024/03/14 05:50:27;;;;;;;;;;;;;;;;;;5130824;27;19911;-45
2024/03/14 05:52:55;;;;;;;;;;;;;;;;;;5141219;27;19969;-45
2024/03/14 05:55:21;;;;;;;;;;;;;;;;;;5140013;27;19908;-45
2024/03/14 05:57:47;;;;;;;;;;;;;;;;;;5140644;27;19914;-46
2024/03/14 06:00:13;;;;;;;;;;;;;;;;;;5140645;27;19912;-45
2024/03/14 06:02:39;;;;;;;;;;;;;;;;;;5140623;27;19914;-45
2024/03/14 06:05:07;;;;;;;;;;;;;;;;;;5141379;27;19942;-45
2024/03/14 06:07:33;;;;;;;;;;;;;;;;;;5141751;27;19908;-45
2024/03/14 06:09:58;;;;;;;;;;;;;;;;;;5141831;27;19914;-45
2024/03/14 06:12:24;;;;;;;;;;;;;;;;;;5141463;27;19907;-45
2024/03/14 06:14:51;;;;;;;;;;;;;;;;;;5140905;27;20373;-45
2024/03/14 06:17:17;;;;;;;;;;;;;;;;;;5141178;27;19907;-45
2024/03/14 06:19:46;;;;;;;;;;;;;;;;;;5141191;27;19954;-45
2024/03/14 06:22:14;;;;;;;;;;;;;;;;;;5141450;27;20369;-45
2024/03/14 06:24:43;;;;;;;;;;;;;;;;;;5141657;27;19908;-45
2024/03/14 06:27:10;;;;;;;;;;;;;;;;;;5141280;27;19930;-45
2024/03/14 06:29:37;;;;;;;;;;;;;;;;;;5141377;27;19994;-45
2024/03/14 06:32:03;;;;;;;;;;;;;;;;;;5140915;27;19907;-45
2024/03/14 06:34:29;;;;;;;;;;;;;;;;;;5141263;27;19915;-45
2024/03/14 06:36:55;;;;;;;;;;;;;;;;;;5141541;27;19907;-45
2024/03/14 06:39:21;;;;;;;;;;;;;;;;;;5141090;27;20002;-45
2024/03/14 06:41:47;;;;;;;;;;;;;;;;;;5140948;27;19955;-45
2024/03/14 06:44:13;;;;;;;;;;;;;;;;;;5141092;27;19956;-45
2024/03/14 06:46:43;;;;;;;;;;;;;;;;;;5140999;27;19904;-45
2024/03/14 06:49:17;;;;;;;;;;;;;;;;;;5140717;27;19907;-45
2024/03/14 06:51:43;;;;;;;;;;;;;;;;;;5140995;27;20270;-45
2024/03/14 06:54:12;;;;;;;;;;;;;;;;;;5141069;27;19908;-45
2024/03/14 06:56:38;;;;;;;;;;;;;;;;;;5140687;27;19908;-45
2024/03/14 06:59:07;;;;;;;;;;;;;;;;;;5140880;27;19911;-45
2024/03/14 07:01:33;;;;;;;;;;;;;;;;;;5140602;27;19914;-45
2024/03/14 07:03:59;;;;;;;;;;;;;;;;;;5141109;27;20342;-45
2024/03/14 07:06:28;;;;;;;;;;;;;;;;;;5140289;27;20335;-45
2024/03/14 07:08:57;;;;;;;;;;;;;;;;;;5140584;27;19938;-45
2024/03/14 07:11:25;;;;;;;;;;;;;;;;;;5140523;27;20338;-45
2024/03/14 07:13:54;;;;;;;;;;;;;;;;;;5140166;27;20369;-45
2024/03/14 07:16:21;;;;;;;;;;;;;;;;;;5140267;27;19913;-45
2024/03/14 07:18:47;;;;;;;;;;;;;;;;;;5139735;27;19907;-45
2024/03/14 07:21:13;;;;;;;;;;;;;;;;;;5139959;27;19915;-45
2024/03/14 07:23:39;;;;;;;;;;;;;;;;;;5140070;27;19909;-45
2024/03/14 07:26:05;;;;;;;;;;;;;;;;;;5140105;27;19907;-45
2024/03/14 07:28:31;;;;;;;;;;;;;;;;;;5140242;27;19907;-45
2024/03/14 07:30:58;;;;;;;;;;;;;;;;;;5140322;27;19999;-45
2024/03/14 07:33:25;;;;;;;;;;;;;;;;;;5139783;27;19952;-45
2024/03/14 07:35:53;;;;;;;;;;;;;;;;;;5140319;27;19911;-45
2024/03/14 07:38:21;;;;;;;;;;;;;;;;;;5139973;27;19908;-45
2024/03/14 07:40:47;;;;;;;;;;;;;;;;;;5139503;27;19918;-45
2024/03/14 07:43:13;;;;;;;;;;;;;;;;;;5139880;27;19908;-45
2024/03/14 07:45:39;;;;;;;;;;;;;;;;;;5139712;27;19962;-45
2024/03/14 07:48:05;;;;;;;;;;;;;;;;;;5139720;27;19908;-46
2024/03/14 07:50:31;;;;;;;;;;;;;;;;;;5139188;27;20388;-45
2024/03/14 07:52:59;;;;;;;;;;;;;;;;;;5139574;27;19907;-45
2024/03/14 07:55:25;;;;;;;;;;;;;;;;;;5139630;27;19908;-45
2024/03/14 07:57:51;;;;;;;;;;;;;;;;;;5139186;27;19918;-45
2024/03/14 08:00:21;;;;;;;;;;;;;;;;;;5139659;27;19912;-45
2024/03/14 08:02:54;;;;;;;;;;;;;;;;;;5139683;27;19964;-45
2024/03/14 08:05:21;;;;;;;;;;;;;;;;;;5138934;27;20363;-45
2024/03/14 08:07:48;;;;;;;;;;;;;;;;;;5140100;27;19904;-45
2024/03/14 08:10:14;;;;;;;;;;;;;;;;;;5138974;27;19929;-45
2024/03/14 08:12:40;;;;;;;;;;;;;;;;;;5139667;27;19903;-45
2024/03/14 08:15:16;;;;;;;;;;;;;;;;;;5139377;27;19911;-45
2024/03/14 08:17:44;;;;;;;;;;;;;;;;;;5138888;27;20435;-45
2024/03/14 08:20:15;;;;;;;;;;;;;;;;;;5138922;27;19982;-45
2024/03/14 08:22:42;;;;;;;;;;;;;;;;;;5139092;27;19986;-45
2024/03/14 08:25:15;;;;;;;;;;;;;;;;;;5139154;27;19903;-45
2024/03/14 08:27:41;;;;;;;;;;;;;;;;;;5139047;27;19911;-45
2024/03/14 08:30:10;;;;;;;;;;;;;;;;;;5139360;27;19904;-45
2024/03/14 08:32:36;;;;;;;;;;;;;;;;;;5139223;27;19960;-45
2024/03/14 08:35:05;;;;;;;;;;;;;;;;;;5139344;28;20391;-45
2024/03/14 08:37:31;;;;;;;;;;;;;;;;;;5138536;27;20373;-45
2024/03/14 08:39:58;;;;;;;;;;;;;;;;;;5138258;28;19911;-45
2024/03/14 08:42:31;;;;;;;;;;;;;;;;;;5139207;28;19919;-45
2024/03/14 08:45:00;;;;;;;;;;;;;;;;;;5138539;28;19911;-45
2024/03/14 08:47:27;;;;;;;;;;;;;;;;;;5138807;28;19989;-45
2024/03/14 08:49:53;;;;;;;;;;;;;;;;;;5138564;28;19972;-45
2024/03/14 08:52:21;;;;;;;;;;;;;;;;;;5138905;28;19903;-45
2024/03/14 08:54:47;;;;;;;;;;;;;;;;;;5138797;28;19957;-45
2024/03/14 08:57:13;;;;;;;;;;;;;;;;;;5138613;28;19903;-45
2024/03/14 08:59:39;;;;;;;;;;;;;;;;;;5138840;28;19934;-45
2024/03/14 09:02:09;;;;;;;;;;;;;;;;;;5138561;28;20389;-45
2024/03/14 09:04:35;;;;;;;;;;;;;;;;;;5138424;28;19911;-45
2024/03/14 09:07:01;;;;;;;;;;;;;;;;;;5138713;28;19990;-45
2024/03/14 09:09:27;;;;;;;;;;;;;;;;;;5138633;28;19976;-45
2024/03/14 09:11:53;;;;;;;;;;;;;;;;;;5138745;28;19915;-45
2024/03/14 09:14:19;;;;;;;;;;;;;;;;;;5138499;28;19983;-45
2024/03/14 09:16:47;;;;;;;;;;;;;;;;;;5138339;28;19908;-45
2024/03/14 09:19:13;;;;;;;;;;;;;;;;;;5138263;28;19960;-45
2024/03/14 09:21:39;;;;;;;;;;;;;;;;;;5138290;28;19915;-45
2024/03/14 09:24:07;;;;;;;;;;;;;;;;;;5138385;28;19903;-45
2024/03/14 09:26:34;;;;;;;;;;;;;;;;;;5138536;28;20024;-45
2024/03/14 09:29:00;;;;;;;;;;;;;;;;;;5138550;28;19903;-45
2024/03/14 09:31:26;;;;;;;;;;;;;;;;;;5138729;28;19950;-45
2024/03/14 09:33:52;;;;;;;;;;;;;;;;;;5138536;28;19908;-45
2024/03/14 09:36:19;;;;;;;;;;;;;;;;;;5138670;28;19907;-45
2024/03/14 09:38:45;;;;;;;;;;;;;;;;;;5138515;28;19911;-45
2024/03/14 09:41:11;;;;;;;;;;;;;;;;;;5138578;28;19912;-45
2024/03/14 09:43:37;;;;;;;;;;;;;;;;;;5138347;28;20003;-45
2024/03/14 09:46:05;;;;;;;;;;;;;;;;;;5138296;28;19985;-45
2024/03/14 09:48:31;;;;;;;;;;;;;;;;;;5138396;28;19911;-45
2024/03/14 09:51:00;;;;;;;;;;;;;;;;;;5140692;27;20235;-45
2024/03/14 09:53:28;;;;;;;;;;;;;;;;;;5141740;27;20396;-45
2024/03/14 09:55:54;;;;;;;;;;;;;;;;;;5141430;27;19965;-45
2024/03/14 09:58:21;;;;;;;;;;;;;;;;;;5141754;27;19911;-45
2024/03/14 10:00:47;;;;;;;;;;;;;;;;;;5141717;27;19970;-45
2024/03/14 10:03:14;;;;;;;;;;;;;;;;;;5142112;27;20442;-45
2024/03/14 10:05:41;;;;;;;;;;;;;;;;;;5141413;27;19919;-45
2024/03/14 10:08:07;;;;;;;;;;;;;;;;;;5141433;27;19915;-45
2024/03/14 10:10:34;;;;;;;;;;;;;;;;;;5141574;27;19907;-45
2024/03/14 10:13:00;;;;;;;;;;;;;;;;;;5141432;27;19907;-45
2024/03/14 10:15:27;;;;;;;;;;;;;;;;;;5141573;27;19907;-45
2024/03/14 10:17:53;;;;;;;;;;;;;;;;;;5141473;27;19933;-45
2024/03/14 10:20:19;;;;;;;;;;;;;;;;;;5141686;27;19912;-45
2024/03/14 10:22:48;;;;;;;;;;;;;;;;;;5132872;27;19919;-44
2024/03/14 10:25:17;;;;;;;;;;;;;;;;;;5119990;28;19968;-45
2024/03/14 10:27:44;;;;;;;;;;;;;;;;;;5119199;28;19904;-45
2024/03/14 10:30:12;;;;;;;;;;;;;;;;;;5120664;28;19967;-45
2024/03/14 10:32:38;;;;;;;;;;;;;;;;;;5118927;28;19954;-45
2024/03/14 10:35:08;;;;;;;;;;;;;;;;;;5120052;28;19908;-45
2024/03/14 10:37:34;;;;;;;;;;;;;;;;;;5120363;28;20275;-45
2024/03/14 10:40:01;;;;;;;;;;;;;;;;;;5120510;28;19911;-45
2024/03/14 10:42:27;;;;;;;;;;;;;;;;;;5120292;28;20388;-45
2024/03/14 10:44:53;;;;;;;;;;;;;;;;;;5120258;28;19957;-45
2024/03/14 10:47:19;;;;;;;;;;;;;;;;;;5120156;28;20358;-45
2024/03/14 10:49:46;;;;;;;;;;;;;;;;;;5120499;28;19908;-45
2024/03/14 10:52:14;;;;;;;;;;;;;;;;;;5120140;28;20316;-45
2024/03/14 10:54:40;;;;;;;;;;;;;;;;;;5120306;28;20271;-45
2024/03/14 10:57:07;;;;;;;;;;;;;;;;;;5120133;28;19908;-45
2024/03/14 10:59:33;;;;;;;;;;;;;;;;;;5120157;28;19960;-45
2024/03/14 11:01:59;;;;;;;;;;;;;;;;;;5119560;28;19908;-45
2024/03/14 11:04:26;;;;;;;;;;;;;;;;;;5120349;28;19908;-45
2024/03/14 11:06:53;;;;;;;;;;;;;;;;;;5119572;28;19920;-45
2024/03/14 11:09:20;;;;;;;;;;;;;;;;;;5119747;28;19912;-45
2024/03/14 11:11:48;;;;;;;;;;;;;;;;;;5119927;28;19908;-45
2024/03/14 11:14:14;;;;;;;;;;;;;;;;;;5101414;28;19915;-45
2024/03/14 11:16:40;;;;;;;;;;;;;;;;;;5119941;28;19908;-45
2024/03/14 11:19:06;;;;;;;;;;;;;;;;;;5119543;28;20326;-45
2024/03/14 11:21:33;;;;;;;;;;;;;;;;;;5119868;28;19951;-45
2024/03/14 11:23:59;;;;;;;;;;;;;;;;;;5119723;28;19998;-45
2024/03/14 11:26:25;;;;;;;;;;;;;;;;;;5119989;28;19943;-45
2024/03/14 11:29:02;;;;;;;;;;;;;;;;;;5119330;28;19911;-45
2024/03/14 11:31:28;;;;;;;;;;;;;;;;;;5119489;28;20599;-45
2024/03/14 11:33:54;;;;;;;;;;;;;;;;;;5119714;28;19915;-45
2024/03/14 11:36:21;;;;;;;;;;;;;;;;;;5119045;28;19907;-45
2024/03/14 11:38:47;;;;;;;;;;;;;;;;;;5119421;28;19967;-45
2024/03/14 11:41:13;;;;;;;;;;;;;;;;;;5119291;28;19911;-45
2024/03/14 11:43:41;;;;;;;;;;;;;;;;;;5119351;28;19911;-45
2024/03/14 11:46:09;;;;;;;;;;;;;;;;;;5118692;28;19914;-45
2024/03/14 11:48:35;;;;;;;;;;;;;;;;;;5118361;28;19907;-45
2024/03/14 11:51:01;;;;;;;;;;;;;;;;;;5118599;28;19984;-45
2024/03/14 11:53:27;;;;;;;;;;;;;;;;;;5118659;28;19915;-45
2024/03/14 11:55:53;;;;;;;;;;;;;;;;;;5118688;28;19908;-45
2024/03/14 11:58:23;;;;;;;;;;;;;;;;;;5118328;28;20406;-45
2024/03/14 12:00:52;;;;;;;;;;;;;;;;;;5118823;28;19997;-45
2024/03/14 12:03:18;;;;;;;;;;;;;;;;;;5118853;28;19953;-45
2024/03/14 12:05:44;;;;;;;;;;;;;;;;;;5118604;28;19920;-45
2024/03/14 12:08:10;;;;;;;;;;;;;;;;;;5118595;28;19908;-45
2024/03/14 12:10:37;;;;;;;;;;;;;;;;;;5119151;28;19957;-45
2024/03/14 12:13:03;;;;;;;;;;;;;;;;;;5117596;28;20290;-45
2024/03/14 12:15:30;;;;;;;;;;;;;;;;;;5118613;28;19915;-45
2024/03/14 12:17:56;;;;;;;;;;;;;;;;;;5118630;28;19914;-45
2024/03/14 12:20:28;;;;;;;;;;;;;;;;;;5118470;28;20010;-45
2024/03/14 12:22:57;;;;;;;;;;;;;;;;;;5118575;28;19914;-45
2024/03/14 12:25:24;;;;;;;;;;;;;;;;;;5118864;28;20367;-45
2024/03/14 12:27:50;;;;;;;;;;;;;;;;;;5119073;28;19946;-45
2024/03/14 12:30:16;;;;;;;;;;;;;;;;;;5118522;28;20301;-45
2024/03/14 12:32:43;;;;;;;;;;;;;;;;;;5118333;28;20287;-45
2024/03/14 12:35:13;;;;;;;;;;;;;;;;;;5118697;28;19919;-45
2024/03/14 12:37:42;;;;;;;;;;;;;;;;;;5118595;28;19908;-44
2024/03/14 12:40:11;;;;;;;;;;;;;;;;;;5118206;28;19918;-45
2024/03/14 12:42:37;;;;;;;;;;;;;;;;;;5118539;28;19912;-45
2024/03/14 12:45:03;;;;;;;;;;;;;;;;;;5118346;28;19908;-45
2024/03/14 12:47:29;;;;;;;;;;;;;;;;;;5099966;28;19908;-45
2024/03/14 12:49:57;;;;;;;;;;;;;;;;;;5118496;28;20007;-45
2024/03/14 12:52:23;;;;;;;;;;;;;;;;;;5118155;28;19908;-45
2024/03/14 12:54:49;;;;;;;;;;;;;;;;;;5118297;28;20362;-45
2024/03/14 12:57:16;;;;;;;;;;;;;;;;;;5118167;28;19908;-45
2024/03/14 12:59:43;;;;;;;;;;;;;;;;;;5118116;28;19911;-45
2024/03/14 13:02:10;;;;;;;;;;;;;;;;;;5118279;28;19994;-45
2024/03/14 13:04:36;;;;;;;;;;;;;;;;;;5117751;28;20359;-45
2024/03/14 13:07:04;;;;;;;;;;;;;;;;;;5118257;28;20020;-45
2024/03/14 13:09:31;;;;;;;;;;;;;;;;;;5118243;28;19939;-45
2024/03/14 13:11:58;;;;;;;;;;;;;;;;;;5118266;28;19908;-45
2024/03/14 13:14:25;;;;;;;;;;;;;;;;;;5118393;28;20378;-45
2024/03/14 13:16:51;;;;;;;;;;;;;;;;;;5118135;28;19908;-45
2024/03/14 13:19:17;;;;;;;;;;;;;;;;;;5118174;28;19938;-45
2024/03/14 13:21:43;;;;;;;;;;;;;;;;;;5118133;28;19960;-45
2024/03/14 13:24:09;;;;;;;;;;;;;;;;;;5118097;28;20049;-45
2024/03/14 13:26:35;;;;;;;;;;;;;;;;;;5122196;28;19915;-45
2024/03/14 13:29:01;;;;;;;;;;;;;;;;;;5121841;28;19943;-46
2024/03/14 13:31:29;;;;;;;;;;;;;;;;;;5122251;28;19908;-45
2024/03/14 13:33:58;;;;;;;;;;;;;;;;;;5121855;28;19936;-45
2024/03/14 13:36:26;;;;;;;;;;;;;;;;;;5121411;28;19914;-45
2024/03/14 13:38:56;;;;;;;;;;;;;;;;;;5121765;28;19908;-45
2024/03/14 13:41:28;;;;;;;;;;;;;;;;;;5121624;28;19995;-45
2024/03/14 13:43:54;;;;;;;;;;;;;;;;;;5121513;28;19914;-45
2024/03/14 13:46:20;;;;;;;;;;;;;;;;;;5121885;28;19908;-45
2024/03/14 13:48:47;;;;;;;;;;;;;;;;;;5121482;28;19908;-45
2024/03/14 13:51:13;;;;;;;;;;;;;;;;;;5121537;28;19907;-45
2024/03/14 13:53:42;;;;;;;;;;;;;;;;;;5121810;28;20022;-45
2024/03/14 13:56:13;;;;;;;;;;;;;;;;;;5121482;28;19915;-45
2024/03/14 13:58:39;;;;;;;;;;;;;;;;;;5121136;28;19915;-45
2024/03/14 14:01:18;;;;;;;;;;;;;;;;;;5102724;28;19911;-45
2024/03/14 14:03:44;;;;;;;;;;;;;;;;;;5121093;28;19915;-45
2024/03/14 14:06:13;;;;;;;;;;;;;;;;;;5120804;28;19979;-45
2024/03/14 14:08:41;;;;;;;;;;;;;;;;;;5121219;28;20278;-45
2024/03/14 14:11:07;;;;;;;;;;;;;;;;;;5121215;28;19915;-45
2024/03/14 14:13:34;;;;;;;;;;;;;;;;;;5120648;28;19908;-45
2024/03/14 14:16:01;;;;;;;;;;;;;;;;;;5120945;28;19908;-45
2024/03/14 14:18:27;;;;;;;;;;;;;;;;;;5121419;28;19922;-45
2024/03/14 14:20:53;;;;;;;;;;;;;;;;;;5120541;28;20006;-45
2024/03/14 14:23:20;;;;;;;;;;;;;;;;;;5120943;28;19907;-45
2024/03/14 14:25:46;;;;;;;;;;;;;;;;;;5120721;28;20393;-44
2024/03/14 14:28:12;;;;;;;;;;;;;;;;;;5120659;28;19915;-45
2024/03/14 14:30:41;;;;;;;;;;;;;;;;;;5121092;28;19907;-45
2024/03/14 14:33:07;;;;;;;;;;;;;;;;;;5120487;28;19929;-45
2024/03/14 14:35:33;;;;;;;;;;;;;;;;;;5120150;28;20375;-45
2024/03/14 14:37:59;;;;;;;;;;;;;;;;;;5119557;28;19908;-45
2024/03/14 14:40:25;;;;;;;;;;;;;;;;;;5120537;28;19912;-45
2024/03/14 14:42:53;;;;;;;;;;;;;;;;;;5120867;28;19912;-45
2024/03/14 14:45:20;;;;;;;;;;;;;;;;;;5120230;28;19903;-45
2024/03/14 14:47:46;;;;;;;;;;;;;;;;;;5120004;28;19939;-45
2024/03/14 14:50:21;;;;;;;;;;;;;;;;;;5120542;28;19907;-45
2024/03/14 14:52:48;;;;;;;;;;;;;;;;;;5120135;28;20371;-45
2024/03/14 14:55:14;;;;;;;;;;;;;;;;;;5120359;28;19904;-45
2024/03/14 14:57:40;;;;;;;;;;;;;;;;;;5120454;28;19956;-45
2024/03/14 15:00:06;;;;;;;;;;;;;;;;;;5119840;28;19919;-45
2024/03/14 15:02:32;;;;;;;;;;;;;;;;;;5119908;28;19947;-45
2024/03/14 15:04:59;;;;;;;;;;;;;;;;;;5119799;28;19941;-45
2024/03/14 15:07:25;;;;;;;;;;;;;;;;;;5119953;28;19990;-45
2024/03/14 15:09:51;;;;;;;;;;;;;;;;;;5119825;28;19951;-45
2024/03/14 15:12:17;;;;;;;;;;;;;;;;;;5119905;28;19908;-45
2024/03/14 15:14:43;;;;;;;;;;;;;;;;;;5120032;28;19904;-45
2024/03/14 15:17:09;;;;;;;;;;;;;;;;;;5119863;28;19907;-45
2024/03/14 15:19:37;;;;;;;;;;;;;;;;;;5119938;28;20412;-45
2024/03/14 15:22:03;;;;;;;;;;;;;;;;;;5119555;28;20386;-45
2024/03/14 15:24:31;;;;;;;;;;;;;;;;;;5119336;28;19908;-45
2024/03/14 15:26:57;;;;;;;;;;;;;;;;;;5119695;28;19999;-45
2024/03/14 15:29:23;;;;;;;;;;;;;;;;;;5119788;28;20336;-45
2024/03/14 15:31:50;;;;;;;;;;;;;;;;;;5119829;28;20026;-45
2024/03/14 15:34:17;;;;;;;;;;;;;;;;;;5119259;28;20415;-45
2024/03/14 15:36:45;;;;;;;;;;;;;;;;;;5119530;28;19908;-45
2024/03/14 15:39:11;;;;;;;;;;;;;;;;;;5118995;28;19912;-45
2024/03/14 15:41:39;;;;;;;;;;;;;;;;;;5119656;28;19907;-45
2024/03/14 15:44:05;;;;;;;;;;;;;;;;;;5119199;28;19908;-45
2024/03/14 15:46:31;;;;;;;;;;;;;;;;;;5119078;28;19918;-45
2024/03/14 15:48:57;;;;;;;;;;;;;;;;;;5119162;28;19907;-45
2024/03/14 15:51:23;;;;;;;;;;;;;;;;;;5118958;28;19912;-45
2024/03/14 15:53:49;;;;;;;;;;;;;;;;;;5119060;28;20342;-45
2024/03/14 15:56:16;;;;;;;;;;;;;;;;;;5119133;28;19908;-45
2024/03/14 15:58:43;;;;;;;;;;;;;;;;;;5119016;28;19911;-45
2024/03/14 16:01:09;;;;;;;;;;;;;;;;;;5119352;28;19947;-45
2024/03/14 16:03:35;;;;;;;;;;;;;;;;;;5118631;28;19953;-45
2024/03/14 16:06:04;;;;;;;;;;;;;;;;;;5118780;28;19931;-45
2024/03/14 16:08:31;;;;;;;;;;;;;;;;;;5118751;28;19915;-45
2024/03/14 16:10:57;;;;;;;;;;;;;;;;;;5118483;28;19915;-45
2024/03/14 16:13:23;;;;;;;;;;;;;;;;;;5118710;28;19908;-45
2024/03/14 16:15:49;;;;;;;;;;;;;;;;;;5118928;28;19957;-45
2024/03/14 16:18:16;;;;;;;;;;;;;;;;;;5118620;28;20363;-45
2024/03/14 16:20:43;;;;;;;;;;;;;;;;;;5118822;28;19923;-45
2024/03/14 16:23:09;;;;;;;;;;;;;;;;;;5118448;28;19908;-46
2024/03/14 16:25:35;;;;;;;;;;;;;;;;;;5119015;28;20251;-45
2024/03/14 16:28:03;;;;;;;;;;;;;;;;;;5118493;28;19919;-45
2024/03/14 16:30:29;;;;;;;;;;;;;;;;;;5118774;28;19915;-44
2024/03/14 16:32:55;;;;;;;;;;;;;;;;;;5118437;28;19943;-45
2024/03/14 16:35:33;;;;;;;;;;;;;;;;;;5118905;28;20283;-45
2024/03/14 16:38:00;;;;;;;;;;;;;;;;;;5118304;28;19908;-45
2024/03/14 16:40:26;;;;;;;;;;;;;;;;;;5118453;28;19912;-45
2024/03/14 16:42:52;;;;;;;;;;;;;;;;;;5118182;28;19914;-45
2024/03/14 16:45:19;;;;;;;;;;;;;;;;;;5118511;28;19915;-45